Aqaba Port, Jordan

7:33 PM EEST on October 02, 2014 (GMT +0300)
TalaBay Marina | Change Station
CLOSE
Current Station
Personal Weather Station
Location: Aqaba, AQABA
Elevation: 36 ft
Nearby Weather Stations

Elev 36 ft 29.41 °N, 34.98 °E | Updated 5 minutes ago

Partly Cloudy
Partly Cloudy
86.1 °F
Feels Like 84 °F
N
6.0
Wind Variable Wind from North

Today
High -- | Low -- °F
--% Chance of Precip.
Yesterday
High -- | Low -- °F
Precip. -- in
6:33 AM 6:24 PM
First Quarter, 60% visible
Pressure 29.86 in
Visibility 6.2 miles
Clouds Few 3000 ft
Heat Index 84 °F
Dew Point 53 °F
Humidity 32%
Rainfall 0.00 in
Snow Depth Not available.
UV 0.0 out of 12
Pollen Not available.
Air Quality Not available.
Flu Activity Not available.
METAR OJAQ 021600Z 36008KT 9999 FEW030 30/09 Q1011 NOSIG

More Conditions Fewer Conditions

Pressure 29.86 in
Visibility 6.2 miles
Clouds Few 3000 ft
Heat Index 84 °F
Dew Point 53 °F
Humidity 32%
Rainfall 0.00 in
Snow Depth Not available.
UV 0.0 out of 12
Pollen Not available.
Air Quality Not available.
Flu Activity Not available.
METAR OJAQ 021600Z 36008KT 9999 FEW030 30/09 Q1011 NOSIG

More Conditions Fewer Conditions

10-Day Weather Forecast

Almanac

Astronomy

Oct. 02, 2014 Rise Set
Actual Time 6:33 AM EEST 6:24 PM EEST
Civil Twilight 6:09 AM EEST 6:48 PM EEST
Nautical Twilight 5:42 AM EEST 7:16 PM EEST
Astronomical Twilight 5:14 AM EEST 7:43 PM EEST
Moon 1:49 PM EEST No Moon Set
Length of Visible Light 12h 38m
Length of Day
11h 51m
Tomorrow will be 1m 46s shorter.
First Quarter, 60% of the Moon is Illuminated
Today
First Quarter
Oct 8
Full
Oct 15
Last Quarter
Oct 23
New
Oct 30
First Quarter

Today's Extremes

Country Highs Country Lows

Community

WunderPhotos

Upload Photos

1,758,294 photos uploaded!

WunderBlogs® & News

Nearby

Snow Depth

Not available.

Earthquake Activity

City Distance Mag. Time & Date
No recent earthquake activity has been reported nearby.
Minimum magnitude displayed is 2.5.

Coastal Water Temperatures

Place Temperature
No Stations Reporting

Nearby Weather Stations